CW3467 Sant Marti de Canals ES current weather conditions

sailwx.info

Wind from 133 at 0 knots gusting 0

Air temperature 21.1° C
Dewpoint 8.4° C

Last reported at 2016-Aug-24 23:37 UTC.
Time now 2016-Aug-25 00:59 UTC

Location: N 42°14' E 000°59'.
View on Google Maps.

See reports from other nearby stations

  
Tides and Currents Weather Stations Pressure Air Temp Water Temp Dewpoint Dewpoint Depression Visibility Wind Speed Wind Dir Waves Ship Positions
date/time (UTC)wind fromknots sea level pressurealtimeterstation pressurevisibilityair tempwater tempwave heightnotes
2016-Aug-24 23:37 133 0 gusting 0 21.1
2016-Aug-24 22:07 106 0 gusting 3 23.9
2016-Aug-24 21:37 122 0 gusting 0 23.9
2016-Aug-24 20:37 033 0 gusting 1 25.6
2016-Aug-24 19:38 131 5 gusting 8 26.7
2016-Aug-24 18:07 129 2 gusting 12 30.6
2016-Aug-24 17:37 214 6 gusting 14 31.1
2016-Aug-24 17:07 142 7 gusting 13 31.7
2016-Aug-24 15:07 231 5 gusting 10 34.4
2016-Aug-24 14:37 225 8 gusting 14 33.9
2016-Aug-24 14:07 215 5 gusting 13 34.4
2016-Aug-24 13:37 264 6 gusting 20 33.9
2016-Aug-24 12:37 264 5 gusting 11 33.3
2016-Aug-24 12:07 224 3 gusting 12 32.8
2016-Aug-24 11:37 297 2 gusting 6 32.2
2016-Aug-24 11:07 228 2 gusting 6 31.1
2016-Aug-24 10:37 214 1 gusting 5 30.0
2016-Aug-24 09:37 236 1 gusting 3 27.2
2016-Aug-24 08:38 219 0 gusting 2 25.0
2016-Aug-24 08:07 235 24.4
2016-Aug-24 07:38 148 0 gusting 0 22.2
2016-Aug-24 07:07 136 0 gusting 3 20.6
2016-Aug-24 06:38 132 18.3
2016-Aug-24 05:38 083 17.8
2016-Aug-24 05:07 027 18.3
2016-Aug-24 04:37 110 18.3
2016-Aug-24 00:37 101 1 gusting 1 21.1
2016-Aug-24 00:07 113 1 gusting 1 21.1
2016-Aug-23 23:37 122 2 gusting 3 22.2
2016-Aug-23 21:37 001 2 gusting 3 24.4
2016-Aug-23 20:37 020 1 gusting 2 25.6
2016-Aug-23 20:07 105 7 gusting 13 26.1
2016-Aug-23 19:37 160 9 gusting 14 26.7
2016-Aug-23 18:07 149 5 gusting 12 30.6
2016-Aug-23 17:37 204 6 gusting 13 32.2
2016-Aug-23 15:07 143 8 gusting 10 33.9
2016-Aug-23 13:37 222 2 gusting 6 33.3
2016-Aug-23 13:07 235 3 gusting 6 32.2
2016-Aug-23 10:37 215 2 gusting 4 29.4
2016-Aug-23 10:07 257 1 gusting 4 28.3
2016-Aug-23 09:37 248 0 gusting 3 26.7
2016-Aug-23 08:37 149 3 gusting 5 23.9
2016-Aug-23 08:07 228 2 gusting 4 22.8
2016-Aug-23 07:07 134 1 gusting 3 20.0
2016-Aug-23 06:37 132 17.8
2016-Aug-23 06:07 118 17.2
2016-Aug-23 00:07 094 1 gusting 2 21.1